Latest Coastal Weather Observations for Cape Sorell

IDT60701

Issued at 9:52 am EST Saturday 1 October 2016 (issued every 10 minutes, with the page automatically refreshed every 10 minutes)

About coastal observations | Map of coastal stations | Coastal observations for TAS | Marine services | Other Formats
Station Details ID: 097000 Name: CAPE SORELL Lat: -42.20 Lon: 145.17 Height: 19.3 m
Data from the previous 72 hours. | See also: Recent months at Cape Sorell
Date/Time
EST
Temp
°C
Wind Pressure Rain since
9am
mm
Weather Cloud Vis
km
Sea
Height
m
Swell
Dir  Spd
kts
Gust
kts
hPa Trend Height
m
Period
s
Dir
01/09:30am 11.6 WSW 16 21 991.7 - 0.0 - - - - - - -
01/09:20am 11.8 W 15 21 991.6 - 0.0 - - - - - - -
01/09:00am 11.7 WNW 20 25 991.3 - 25.2 Rain - - - - - -
01/08:30am 11.8 NW 17 24 991.1 - 25.0 - - - - - - -
01/08:00am 11.8 NW 16 22 991.0 - 25.0 - - - - - - -
01/07:30am 11.8 NW 15 25 990.8 - 24.6 - - - - - - -
01/07:00am 11.6 NW 14 21 990.3 - 24.6 - - - - - - -
01/06:30am 11.7 NW 14 20 990.0 - 24.6 - - - - - - -
01/06:00am 11.7 NW 14 20 989.6 - 24.6 - - - - - - -
01/05:30am 11.6 NW 13 20 989.1 - 24.6 - - - - - - -
01/05:00am 11.6 NW 15 22 988.6 - 24.6 - - - - - - -
01/04:30am 11.4 NW 15 21 988.2 - 24.6 - - - - - - -
01/04:00am 11.1 NW 18 23 987.7 - 24.6 - - - - - - -
01/03:30am 11.3 NW 13 17 987.7 - 24.6 - - - - - - -
01/03:00am 11.3 NW 12 16 987.5 - 24.6 - - - - - - -
01/02:30am 11.4 NW 10 15 987.5 - 24.6 - - - - - - -
01/02:17am 10.1 NNE 17 26 987.6 - 24.6 - - - - - - -
01/02:00am 9.8 NNE 20 25 987.2 - 24.6 - - - - - - -
01/01:30am 9.3 NNE 24 29 987.1 - 23.8 - - - - - - -
01/01:00am 9.2 NNE 25 29 987.2 - 22.6 - - - - - - -
01/12:30am 9.3 NNE 24 29 987.2 - 22.0 - - - - - - -
01/12:00am 9.0 NNE 25 31 987.1 - 21.6 Rain - - - - - -
 
Date/Time
EST
Temp
°C
Wind Pressure Rain since
9am
mm
Weather Cloud Vis
km
Sea
Height
m
Swell
Dir  Spd
kts
Gust
kts
hPa Trend Height
m
Period
s
Dir
30/11:30pm 8.9 NNE 24 28 987.4 - 21.0 - - - - - - -
30/11:00pm 8.9 NNE 24 28 987.6 - 20.4 - - - - - - -
30/10:30pm 9.1 NNE 26 30 987.5 - 19.0 - - - - - - -
30/10:00pm 9.2 NNE 26 32 987.6 - 19.0 - - - - - - -
30/09:30pm 9.3 NNE 27 33 987.4 - 18.6 - - - - - - -
30/09:00pm 9.8 NNE 26 33 987.5 - 18.4 Recent precip. - - - - - -
30/08:30pm 11.2 NNE 12 27 987.7 - 18.2 - - - - - - -
30/08:26pm 11.5 ENE 7 27 987.1 - 18.2 - - - - - - -
30/08:00pm 12.2 SSW 7 9 987.4 - 18.2 - - - - - - -
30/07:30pm 12.2 S 5 9 987.3 - 17.8 - - - - - - -
30/07:00pm 12.2 S 8 12 987.0 - 17.2 - - - - - - -
30/06:30pm 12.3 S 11 16 986.7 - 15.2 - - - - - - -
30/06:00pm 12.3 S 12 15 986.6 - 15.2 Rain - - - - - -
30/05:30pm 12.4 W 3 5 986.4 - 13.2 - - - - - - -
30/05:00pm 12.4 WSW 3 4 986.2 - 12.2 - - - - - - -
30/04:30pm 12.5 CALM 0 2 986.3 - 12.0 - - - - - - -
30/04:00pm 12.2 SW 2 3 986.4 - 10.4 - - - - - - -
30/03:30pm 12.4 S 3 4 986.4 - 10.0 - - - - - - -
30/03:00pm 12.5 W 6 9 986.6 - 10.0 - - - - - - -
30/02:30pm 11.8 WNW 15 20 986.8 - 10.0 - - - - - - -
30/02:00pm 11.4 W 15 19 987.1 - 10.0 - - - - - - -
30/01:30pm 11.8 WSW 15 20 987.4 - 9.4 - - - - - - -
30/01:00pm 11.4 WSW 19 23 987.9 - 9.4 - - - - - - -
30/12:30pm 11.3 WSW 18 22 988.6 - 8.6 - - - - - - -
30/12:00pm 11.1 WSW 18 21 989.1 - 7.8 Rain - - - - - -
30/11:30am 11.0 WSW 18 22 989.3 - 7.6 - - - - - - -
30/11:00am 10.8 WSW 15 18 990.2 - 6.4 - - - - - - -
30/10:30am 10.6 WSW 12 14 990.7 - 5.4 - - - - - - -
30/10:00am 10.5 SW 14 16 991.1 - 3.8 - - - - - - -
30/09:30am 10.2 SW 9 11 991.5 - 1.6 - - - - - - -
30/09:00am 10.1 SW 8 10 991.9 - 7.2 Rain - - - - - -
30/08:30am 10.4 SSW 7 9 992.2 - 6.2 - - - - - - -
30/08:00am 10.2 ESE 3 3 992.5 - 4.6 - - - - - - -
30/07:30am 10.0 SE 5 7 992.3 - 3.0 - - - - - - -
30/07:00am 9.6 SE 4 5 992.1 - 3.0 - - - - - - -
30/06:30am 9.4 SE 4 4 991.8 - 3.0 - - - - - - -
30/06:00am 9.4 S 2 2 991.5 - 3.0 - - - - - - -
30/05:30am 9.3 SSE 3 5 991.4 - 3.0 - - - - - - -
30/05:00am 9.0 SE 6 7 991.5 - 3.0 - - - - - - -
30/04:30am 8.7 SE 3 5 991.3 - 3.0 - - - - - - -
30/04:00am 8.7 SE 4 5 991.2 - 3.0 - - - - - - -
30/03:30am 8.7 E 4 4 990.9 - 3.0 - - - - - - -
30/03:00am 8.4 ENE 4 5 991.2 - 3.0 - - - - - - -
30/02:30am 9.1 NE 4 4 991.2 - 3.0 - - - - - - -
30/02:00am 9.7 NE 5 7 991.6 - 3.0 - - - - - - -
30/01:30am 9.9 NE 6 7 991.7 - 3.0 - - - - - - -
30/01:00am 10.3 NE 6 8 991.7 - 3.0 - - - - - - -
30/12:30am 10.4 NE 5 7 991.6 - 3.0 - - - - - - -
30/12:00am 10.5 NNE 6 8 991.4 - 3.0 - - - - - - -
 
Date/Time
EST
Temp
°C
Wind Pressure Rain since
9am
mm
Weather Cloud Vis
km
Sea
Height
m
Swell
Dir  Spd
kts
Gust
kts
hPa Trend Height
m
Period
s
Dir
29/11:30pm 10.3 NNE 8 11 991.4 - 3.0 - - - - - - -
29/11:00pm 10.0 NE 7 9 991.0 - 3.0 - - - - - - -
29/10:30pm 10.2 NNE 4 5 990.8 - 3.0 - - - - - - -
29/10:00pm 10.2 N 5 6 991.0 - 2.8 - - - - - - -
29/09:30pm 10.3 NNW 6 9 991.1 - 2.8 - - - - - - -
29/09:00pm 9.8 NNW 14 17 991.3 - 2.8 Rain - - - - - -
29/08:30pm 10.5 NW 12 17 990.7 - 2.0 - - - - - - -
29/08:00pm 10.9 NW 13 17 990.1 - 1.6 - - - - - - -
29/07:30pm 11.5 NW 11 13 989.3 - 1.6 - - - - - - -
29/07:00pm 12.4 NNW 7 13 989.0 - 1.4 - - - - - - -
29/06:30pm 13.1 NE 6 9 988.7 - 0.6 - - - - - - -
29/06:00pm 13.8 E 6 8 988.1 - 0.2 - - - - - - -
29/05:30pm 13.7 ENE 5 7 987.9 - 0.2 - - - - - - -
29/05:00pm 14.2 ENE 11 15 987.7 - 0.2 - - - - - - -
29/04:30pm 14.1 NE 14 19 987.6 - 0.2 - - - - - - -
29/04:00pm 14.5 ESE 8 11 987.9 - 0.2 - - - - - - -
29/03:30pm 14.3 SE 7 10 988.0 - 0.2 - - - - - - -
29/03:00pm 14.0 SE 7 11 988.2 - 0.2 Recent precip. - - - - - -
29/02:30pm 13.5 SE 11 15 988.4 - 0.2 - - - - - - -
29/02:00pm 14.0 SE 9 14 988.8 - 0.0 - - - - - - -
29/01:30pm 14.7 SE 10 15 989.0 - 0.0 - - - - - - -
29/01:00pm 14.2 ESE 13 19 989.5 - 0.0 - - - - - - -
29/12:30pm 14.6 SE 15 21 989.6 - 0.0 - - - - - - -
29/12:00pm 14.7 ESE 12 17 990.0 - 0.0 - - - - - - -
29/11:30am 14.6 SE 11 15 990.4 - 0.0 - - - - - - -
29/11:00am 15.2 E 6 9 990.7 - 0.0 - - - - - - -
29/10:30am 15.0 NE 6 8 990.8 - 0.0 - - - - - - -
29/10:00am 15.2 ENE 13 17 990.6 - 0.0 - - - - - - -
29/09:30am 15.4 ENE 16 21 990.9 - 0.0 - - - - - - -
29/09:00am 14.9 E 14 22 990.7 - 0.2 - - - - - - -
29/08:39am 14.9 ENE 15 25 991.0 - 0.2 - - - - - - -
29/08:31am 14.9 NE 29 43 990.5 - 0.2 - - - - - - -
29/08:30am 15.0 NE 31 43 990.4 - 0.2 - - - - - - -
29/08:01am 15.1 ENE 27 39 989.5 - 0.2 - - - - - - -
29/08:00am 15.1 ENE 26 39 989.5 - 0.2 - - - - - - -
29/07:58am 15.0 ENE 24 39 989.5 - 0.2 - - - - - - -
29/07:51am 15.0 ENE 16 28 990.8 - 0.2 - - - - - - -
29/07:30am 14.9 NE 12 17 992.3 - 0.2 - - - - - - -
29/07:00am 15.1 NE 12 20 992.6 - 0.2 - - - - - - -
29/06:30am 15.0 NE 11 17 992.8 - 0.2 - - - - - - -
29/06:00am 14.8 ENE 13 20 992.0 - 0.2 - - - - - - -
29/05:30am 14.8 NE 19 32 992.0 - 0.2 - - - - - - -
29/05:00am 14.7 NE 21 35 992.1 - 0.2 - - - - - - -
29/04:44am 14.4 NE 16 28 992.5 - 0.2 - - - - - - -
29/04:30am 14.0 ENE 14 19 992.9 - 0.2 - - - - - - -
29/04:00am 13.7 NE 12 18 993.9 - 0.2 - - - - - - -
29/03:30am 13.7 ENE 14 19 994.2 - 0.2 - - - - - - -
29/03:00am 13.5 ENE 14 19 994.5 - 0.2 - - - - - - -
29/02:32am 13.7 ENE 22 33 994.9 - 0.2 - - - - - - -
29/02:30am 13.8 ENE 24 33 994.8 - 0.2 - - - - - - -
29/02:01am 13.3 NE 19 29 995.9 - 0.2 - - - - - - -
29/02:00am 13.3 NE 19 29 995.9 - 0.2 - - - - - - -
29/01:54am 13.2 NE 17 29 995.7 - 0.2 - - - - - - -
29/01:30am 12.1 ENE 9 17 996.9 - 0.2 - - - - - - -
29/01:00am 11.8 ENE 11 20 997.5 - 0.2 - - - - - - -
29/12:30am 11.9 ENE 13 18 998.4 - 0.2 - - - - - - -
29/12:00am 10.8 ENE 9 11 998.8 - 0.2 - - - - - - -
 
Date/Time
EST
Temp
°C
Wind Pressure Rain since
9am
mm
Weather Cloud Vis
km
Sea
Height
m
Swell
Dir  Spd
kts
Gust
kts
hPa Trend Height
m
Period
s
Dir
28/11:30pm 10.6 ENE 9 12 999.1 - 0.2 - - - - - - -
28/11:00pm 9.9 E 8 11 999.6 - 0.2 - - - - - - -
28/10:30pm 9.8 E 8 11 1000.3 - 0.2 - - - - - - -
28/10:00pm 9.5 E 7 11 1000.5 - 0.2 - - - - - - -
28/09:30pm 10.4 ENE 8 11 1001.2 - 0.2 - - - - - - -
28/09:00pm 9.8 E 7 7 1001.5 - 0.2 - - - - - - -
28/08:30pm 10.4 ESE 9 11 1001.8 - 0.2 - - - - - - -
28/08:00pm 9.9 ESE 6 7 1002.8 - 0.2 - - - - - - -
28/07:30pm 10.0 ESE 4 5 1003.3 - 0.2 - - - - - - -
28/07:00pm 10.4 SE 2 3 1003.1 - 0.2 - - - - - - -
28/06:30pm 10.9 SSE 1 1 1002.9 - 0.2 - - - - - - -
28/06:00pm 11.9 SSW 2 3 1002.8 - 0.2 - - - - - - -
28/05:30pm 13.2 SW 4 5 1002.8 - 0.2 - - - - - - -
28/05:00pm 13.6 WSW 4 5 1003.4 - 0.2 - - - - - - -
28/04:30pm 14.1 WSW 4 5 1003.1 - 0.2 - - - - - - -
28/04:00pm 14.5 SW 5 6 1002.8 - 0.2 - - - - - - -
28/03:30pm 14.7 SW 5 6 1003.0 - 0.2 - - - - - - -
28/03:00pm 14.6 WSW 4 5 1003.6 - 0.2 - - - - - - -
28/02:30pm 15.8 WNW 6 7 1004.4 - 0.2 - - - - - - -
28/02:00pm 16.0 WNW 5 6 1005.2 - 0.2 - - - - - - -
28/01:30pm 15.7 WNW 4 6 1005.8 - 0.2 - - - - - - -
28/01:00pm 15.9 NW 5 7 1006.6 - 0.2 - - - - - - -
28/12:30pm 16.1 NW 4 6 1007.3 - 0.2 - - - - - - -
28/12:00pm 15.5 NNW 5 7 1007.8 - 0.2 Rain - - - - - -
28/11:30am 13.9 N 7 9 1008.1 - 0.0 - - - - - - -
28/11:00am 13.5 N 9 12 1008.5 - 0.0 - - - - - - -
28/10:30am 12.9 N 10 13 1008.8 - 0.0 - - - - - - -
28/10:00am 12.5 NNE 10 12 1009.0 - 0.0 - - - - - - -

Other Formats:

Comma delimited format used in spreadsheet applications
http://www.bom.gov.au/fwo/IDT60701/IDT60701.94974.axf

JavaScript Object Notation format (JSON) in row-major order
http://www.bom.gov.au/fwo/IDT60701/IDT60701.94974.json